sensor_id;sensor_type;location;lat;lon;timestamp;P1;durP1;ratioP1;P2;durP2;ratioP2
21392;SDS011;10857;52.228;21.026;2023-03-14T00:01:30;16.10;;;8.37;;
21392;SDS011;10857;52.228;21.026;2023-03-14T00:03:57;13.60;;;7.47;;
21392;SDS011;10857;52.228;21.026;2023-03-14T00:06:24;16.73;;;8.00;;
21392;SDS011;10857;52.228;21.026;2023-03-14T00:08:52;16.67;;;8.13;;
21392;SDS011;10857;52.228;21.026;2023-03-14T00:11:20;13.93;;;7.87;;
21392;SDS011;10857;52.228;21.026;2023-03-14T00:13:51;15.60;;;8.03;;
21392;SDS011;10857;52.228;21.026;2023-03-14T00:16:19;13.73;;;8.33;;
21392;SDS011;10857;52.228;21.026;2023-03-14T00:18:46;17.43;;;8.27;;
21392;SDS011;10857;52.228;21.026;2023-03-14T00:21:13;15.23;;;8.57;;
21392;SDS011;10857;52.228;21.026;2023-03-14T00:23:41;17.87;;;8.90;;
21392;SDS011;10857;52.228;21.026;2023-03-14T00:26:10;16.53;;;9.13;;
21392;SDS011;10857;52.228;21.026;2023-03-14T00:28:39;16.93;;;8.73;;
21392;SDS011;10857;52.228;21.026;2023-03-14T00:31:08;18.33;;;9.27;;
21392;SDS011;10857;52.228;21.026;2023-03-14T00:33:40;17.83;;;8.87;;
21392;SDS011;10857;52.228;21.026;2023-03-14T00:36:08;17.63;;;9.40;;
21392;SDS011;10857;52.228;21.026;2023-03-14T00:38:38;17.07;;;8.50;;
21392;SDS011;10857;52.228;21.026;2023-03-14T00:41:06;15.77;;;8.50;;
21392;SDS011;10857;52.228;21.026;2023-03-14T00:43:38;15.30;;;8.53;;
21392;SDS011;10857;52.228;21.026;2023-03-14T00:46:06;16.10;;;8.57;;
21392;SDS011;10857;52.228;21.026;2023-03-14T00:48:33;15.30;;;8.10;;
21392;SDS011;10857;52.228;21.026;2023-03-14T00:51:01;15.23;;;8.40;;
21392;SDS011;10857;52.228;21.026;2023-03-14T00:53:29;17.53;;;8.47;;
21392;SDS011;10857;52.228;21.026;2023-03-14T00:55:56;16.67;;;8.23;;
21392;SDS011;10857;52.228;21.026;2023-03-14T00:58:23;15.73;;;8.30;;
21392;SDS011;10857;52.228;21.026;2023-03-14T01:00:52;15.80;;;8.40;;
21392;SDS011;10857;52.228;21.026;2023-03-14T01:03:19;14.67;;;8.23;;
21392;SDS011;10857;52.228;21.026;2023-03-14T01:05:48;15.70;;;8.50;;
21392;SDS011;10857;52.228;21.026;2023-03-14T01:08:16;14.77;;;8.30;;
21392;SDS011;10857;52.228;21.026;2023-03-14T01:10:42;13.80;;;7.80;;
21392;SDS011;10857;52.228;21.026;2023-03-14T01:13:10;15.23;;;8.50;;
21392;SDS011;10857;52.228;21.026;2023-03-14T01:15:37;14.00;;;8.17;;
21392;SDS011;10857;52.228;21.026;2023-03-14T01:18:04;13.37;;;7.83;;
21392;SDS011;10857;52.228;21.026;2023-03-14T01:20:31;15.70;;;8.20;;
21392;SDS011;10857;52.228;21.026;2023-03-14T01:22:58;17.03;;;8.00;;
21392;SDS011;10857;52.228;21.026;2023-03-14T01:25:25;13.47;;;7.43;;
21392;SDS011;10857;52.228;21.026;2023-03-14T01:27:53;14.43;;;8.17;;
21392;SDS011;10857;52.228;21.026;2023-03-14T01:30:20;14.60;;;8.37;;
21392;SDS011;10857;52.228;21.026;2023-03-14T01:32:48;15.90;;;8.03;;
21392;SDS011;10857;52.228;21.026;2023-03-14T01:35:15;17.57;;;7.97;;
21392;SDS011;10857;52.228;21.026;2023-03-14T01:37:42;16.07;;;8.13;;
21392;SDS011;10857;52.228;21.026;2023-03-14T01:40:14;16.73;;;8.07;;
21392;SDS011;10857;52.228;21.026;2023-03-14T01:42:46;16.13;;;7.93;;
21392;SDS011;10857;52.228;21.026;2023-03-14T01:48:28;14.27;;;7.73;;
21392;SDS011;10857;52.228;21.026;2023-03-14T01:50:59;13.67;;;7.50;;
21392;SDS011;10857;52.228;21.026;2023-03-14T01:53:27;13.43;;;7.90;;
21392;SDS011;10857;52.228;21.026;2023-03-14T01:55:56;16.23;;;7.80;;
21392;SDS011;10857;52.228;21.026;2023-03-14T01:58:24;15.33;;;8.30;;
21392;SDS011;10857;52.228;21.026;2023-03-14T02:00:54;14.33;;;8.00;;
21392;SDS011;10857;52.228;21.026;2023-03-14T02:03:23;11.90;;;7.77;;
21392;SDS011;10857;52.228;21.026;2023-03-14T02:05:53;15.50;;;7.93;;
21392;SDS011;10857;52.228;21.026;2023-03-14T02:08:24;13.97;;;7.67;;
21392;SDS011;10857;52.228;21.026;2023-03-14T02:11:01;14.43;;;7.87;;
21392;SDS011;10857;52.228;21.026;2023-03-14T02:13:54;13.27;;;7.67;;
21392;SDS011;10857;52.228;21.026;2023-03-14T02:16:35;13.87;;;7.90;;
21392;SDS011;10857;52.228;21.026;2023-03-14T02:19:24;13.57;;;7.33;;
21392;SDS011;10857;52.228;21.026;2023-03-14T02:22:16;14.13;;;7.60;;
21392;SDS011;10857;52.228;21.026;2023-03-14T02:27:24;12.13;;;7.40;;
21392;SDS011;10857;52.228;21.026;2023-03-14T02:29:55;14.20;;;7.63;;
21392;SDS011;10857;52.228;21.026;2023-03-14T02:32:45;15.63;;;7.33;;
21392;SDS011;10857;52.228;21.026;2023-03-14T02:35:15;13.63;;;7.47;;
21392;SDS011;10857;52.228;21.026;2023-03-14T02:37:55;13.10;;;7.17;;
21392;SDS011;10857;52.228;21.026;2023-03-14T02:40:35;12.77;;;7.00;;
21392;SDS011;10857;52.228;21.026;2023-03-14T02:43:02;15.30;;;7.57;;
21392;SDS011;10857;52.228;21.026;2023-03-14T02:45:35;13.47;;;7.10;;
21392;SDS011;10857;52.228;21.026;2023-03-14T02:48:06;12.90;;;7.33;;
21392;SDS011;10857;52.228;21.026;2023-03-14T02:50:37;12.60;;;7.03;;
21392;SDS011;10857;52.228;21.026;2023-03-14T02:53:05;12.80;;;6.83;;
21392;SDS011;10857;52.228;21.026;2023-03-14T02:55:33;11.87;;;6.87;;
21392;SDS011;10857;52.228;21.026;2023-03-14T02:58:05;14.63;;;7.47;;
21392;SDS011;10857;52.228;21.026;2023-03-14T03:00:32;11.87;;;7.03;;
21392;SDS011;10857;52.228;21.026;2023-03-14T03:03:01;13.00;;;7.00;;
21392;SDS011;10857;52.228;21.026;2023-03-14T03:05:28;11.33;;;6.73;;
21392;SDS011;10857;52.228;21.026;2023-03-14T03:07:55;11.93;;;6.40;;
21392;SDS011;10857;52.228;21.026;2023-03-14T03:10:23;11.40;;;6.23;;
21392;SDS011;10857;52.228;21.026;2023-03-14T03:12:51;11.67;;;6.40;;
21392;SDS011;10857;52.228;21.026;2023-03-14T03:15:21;9.50;;;6.47;;
21392;SDS011;10857;52.228;21.026;2023-03-14T03:17:49;12.97;;;6.60;;
21392;SDS011;10857;52.228;21.026;2023-03-14T03:20:16;10.23;;;6.40;;
21392;SDS011;10857;52.228;21.026;2023-03-14T03:22:43;12.27;;;6.60;;
21392;SDS011;10857;52.228;21.026;2023-03-14T03:25:10;11.83;;;6.40;;
21392;SDS011;10857;52.228;21.026;2023-03-14T03:27:37;10.80;;;6.40;;
21392;SDS011;10857;52.228;21.026;2023-03-14T03:30:05;10.77;;;6.53;;
21392;SDS011;10857;52.228;21.026;2023-03-14T03:32:34;14.53;;;6.43;;
21392;SDS011;10857;52.228;21.026;2023-03-14T03:35:03;10.97;;;6.10;;
21392;SDS011;10857;52.228;21.026;2023-03-14T03:37:32;9.77;;;5.70;;
21392;SDS011;10857;52.228;21.026;2023-03-14T03:40:02;9.23;;;5.57;;
21392;SDS011;10857;52.228;21.026;2023-03-14T03:42:34;10.67;;;5.97;;
21392;SDS011;10857;52.228;21.026;2023-03-14T03:45:03;10.60;;;6.30;;
21392;SDS011;10857;52.228;21.026;2023-03-14T03:47:34;13.17;;;6.87;;
21392;SDS011;10857;52.228;21.026;2023-03-14T03:50:01;11.07;;;5.53;;
21392;SDS011;10857;52.228;21.026;2023-03-14T03:52:28;11.27;;;5.87;;
21392;SDS011;10857;52.228;21.026;2023-03-14T03:54:55;12.93;;;6.17;;
21392;SDS011;10857;52.228;21.026;2023-03-14T03:57:22;10.47;;;5.73;;
21392;SDS011;10857;52.228;21.026;2023-03-14T03:59:49;9.53;;;5.93;;
21392;SDS011;10857;52.228;21.026;2023-03-14T04:02:16;10.83;;;5.70;;
21392;SDS011;10857;52.228;21.026;2023-03-14T04:04:43;12.67;;;5.80;;
21392;SDS011;10857;52.228;21.026;2023-03-14T04:07:11;10.87;;;5.77;;
21392;SDS011;10857;52.228;21.026;2023-03-14T04:09:41;10.87;;;5.77;;
21392;SDS011;10857;52.228;21.026;2023-03-14T04:12:20;12.33;;;6.07;;
21392;SDS011;10857;52.228;21.026;2023-03-14T04:14:54;13.33;;;6.00;;
21392;SDS011;10857;52.228;21.026;2023-03-14T04:17:21;10.77;;;5.80;;
21392;SDS011;10857;52.228;21.026;2023-03-14T04:19:49;11.97;;;6.17;;
21392;SDS011;10857;52.228;21.026;2023-03-14T04:22:20;9.73;;;5.67;;
21392;SDS011;10857;52.228;21.026;2023-03-14T04:24:52;12.10;;;5.73;;
21392;SDS011;10857;52.228;21.026;2023-03-14T04:27:20;12.07;;;6.07;;
21392;SDS011;10857;52.228;21.026;2023-03-14T04:29:48;11.47;;;6.43;;
21392;SDS011;10857;52.228;21.026;2023-03-14T04:32:20;11.60;;;5.73;;
21392;SDS011;10857;52.228;21.026;2023-03-14T04:34:48;10.97;;;5.93;;
21392;SDS011;10857;52.228;21.026;2023-03-14T04:37:15;9.73;;;5.37;;
21392;SDS011;10857;52.228;21.026;2023-03-14T04:39:43;9.23;;;5.70;;
21392;SDS011;10857;52.228;21.026;2023-03-14T04:42:17;10.03;;;5.70;;
21392;SDS011;10857;52.228;21.026;2023-03-14T04:44:45;11.03;;;5.50;;
21392;SDS011;10857;52.228;21.026;2023-03-14T04:47:14;10.90;;;5.97;;
21392;SDS011;10857;52.228;21.026;2023-03-14T04:49:43;12.93;;;6.10;;
21392;SDS011;10857;52.228;21.026;2023-03-14T04:52:12;11.70;;;6.10;;
21392;SDS011;10857;52.228;21.026;2023-03-14T04:54:40;9.37;;;5.57;;
21392;SDS011;10857;52.228;21.026;2023-03-14T04:57:07;11.07;;;5.50;;
21392;SDS011;10857;52.228;21.026;2023-03-14T04:59:37;11.10;;;5.83;;
21392;SDS011;10857;52.228;21.026;2023-03-14T05:02:23;11.17;;;5.70;;
21392;SDS011;10857;52.228;21.026;2023-03-14T05:04:59;9.40;;;5.60;;
21392;SDS011;10857;52.228;21.026;2023-03-14T05:07:45;10.53;;;5.70;;
21392;SDS011;10857;52.228;21.026;2023-03-14T05:10:39;10.47;;;5.60;;
21392;SDS011;10857;52.228;21.026;2023-03-14T05:13:15;14.63;;;7.50;;
21392;SDS011;10857;52.228;21.026;2023-03-14T05:16:09;11.40;;;5.60;;
21392;SDS011;10857;52.228;21.026;2023-03-14T05:19:15;9.37;;;5.33;;
21392;SDS011;10857;52.228;21.026;2023-03-14T05:21:55;11.37;;;5.40;;
21392;SDS011;10857;52.228;21.026;2023-03-14T05:24:41;11.07;;;5.53;;
21392;SDS011;10857;52.228;21.026;2023-03-14T05:27:31;10.87;;;6.03;;
21392;SDS011;10857;52.228;21.026;2023-03-14T05:30:07;8.47;;;5.13;;
21392;SDS011;10857;52.228;21.026;2023-03-14T05:32:49;10.80;;;5.70;;
21392;SDS011;10857;52.228;21.026;2023-03-14T05:35:37;10.23;;;5.50;;
21392;SDS011;10857;52.228;21.026;2023-03-14T05:38:36;9.60;;;5.40;;
21392;SDS011;10857;52.228;21.026;2023-03-14T05:41:05;9.43;;;5.80;;
21392;SDS011;10857;52.228;21.026;2023-03-14T05:44:01;10.93;;;5.03;;
21392;SDS011;10857;52.228;21.026;2023-03-14T05:46:47;9.57;;;5.40;;
21392;SDS011;10857;52.228;21.026;2023-03-14T05:49:33;12.27;;;5.63;;
21392;SDS011;10857;52.228;21.026;2023-03-14T05:52:20;9.27;;;5.27;;
21392;SDS011;10857;52.228;21.026;2023-03-14T05:55:26;12.90;;;5.40;;
21392;SDS011;10857;52.228;21.026;2023-03-14T05:58:16;12.00;;;5.60;;
21392;SDS011;10857;52.228;21.026;2023-03-14T06:01:01;12.70;;;6.10;;
21392;SDS011;10857;52.228;21.026;2023-03-14T06:03:45;8.57;;;5.33;;
21392;SDS011;10857;52.228;21.026;2023-03-14T06:06:12;11.53;;;5.47;;
21392;SDS011;10857;52.228;21.026;2023-03-14T06:08:39;12.87;;;5.13;;
21392;SDS011;10857;52.228;21.026;2023-03-14T06:11:09;7.80;;;5.10;;
21392;SDS011;10857;52.228;21.026;2023-03-14T06:13:37;12.90;;;5.60;;
21392;SDS011;10857;52.228;21.026;2023-03-14T06:16:04;8.60;;;5.27;;
21392;SDS011;10857;52.228;21.026;2023-03-14T06:18:31;10.13;;;5.50;;
21392;SDS011;10857;52.228;21.026;2023-03-14T06:20:58;9.37;;;5.80;;
21392;SDS011;10857;52.228;21.026;2023-03-14T06:23:25;9.47;;;5.43;;
21392;SDS011;10857;52.228;21.026;2023-03-14T06:25:55;9.47;;;5.50;;
21392;SDS011;10857;52.228;21.026;2023-03-14T06:28:24;8.43;;;5.20;;
21392;SDS011;10857;52.228;21.026;2023-03-14T06:30:55;8.10;;;4.77;;
21392;SDS011;10857;52.228;21.026;2023-03-14T06:33:22;10.27;;;5.20;;
21392;SDS011;10857;52.228;21.026;2023-03-14T06:35:49;9.30;;;4.93;;
21392;SDS011;10857;52.228;21.026;2023-03-14T06:38:16;11.70;;;5.43;;
21392;SDS011;10857;52.228;21.026;2023-03-14T06:40:44;9.20;;;5.27;;
21392;SDS011;10857;52.228;21.026;2023-03-14T06:43:14;9.27;;;5.20;;
21392;SDS011;10857;52.228;21.026;2023-03-14T06:45:43;9.93;;;5.67;;
21392;SDS011;10857;52.228;21.026;2023-03-14T06:48:11;7.47;;;5.20;;
21392;SDS011;10857;52.228;21.026;2023-03-14T06:50:44;12.60;;;5.40;;
21392;SDS011;10857;52.228;21.026;2023-03-14T06:53:12;10.10;;;5.23;;
21392;SDS011;10857;52.228;21.026;2023-03-14T06:55:41;11.03;;;5.00;;
21392;SDS011;10857;52.228;21.026;2023-03-14T06:58:10;9.67;;;5.43;;
21392;SDS011;10857;52.228;21.026;2023-03-14T07:00:43;11.00;;;5.40;;
21392;SDS011;10857;52.228;21.026;2023-03-14T07:03:14;9.80;;;5.20;;
21392;SDS011;10857;52.228;21.026;2023-03-14T07:05:46;10.73;;;5.47;;
21392;SDS011;10857;52.228;21.026;2023-03-14T07:08:14;15.87;;;5.90;;
21392;SDS011;10857;52.228;21.026;2023-03-14T07:10:41;11.10;;;5.57;;
21392;SDS011;10857;52.228;21.026;2023-03-14T07:13:09;12.57;;;5.00;;
21392;SDS011;10857;52.228;21.026;2023-03-14T07:15:47;10.37;;;5.27;;
21392;SDS011;10857;52.228;21.026;2023-03-14T07:18:14;9.30;;;4.93;;
21392;SDS011;10857;52.228;21.026;2023-03-14T07:20:41;15.10;;;5.70;;
21392;SDS011;10857;52.228;21.026;2023-03-14T07:23:08;11.40;;;5.33;;
21392;SDS011;10857;52.228;21.026;2023-03-14T07:25:55;8.80;;;4.90;;
21392;SDS011;10857;52.228;21.026;2023-03-14T07:28:24;11.07;;;5.37;;
21392;SDS011;10857;52.228;21.026;2023-03-14T07:31:10;8.70;;;5.40;;
21392;SDS011;10857;52.228;21.026;2023-03-14T07:33:38;10.13;;;5.30;;
21392;SDS011;10857;52.228;21.026;2023-03-14T07:36:06;9.50;;;5.50;;
21392;SDS011;10857;52.228;21.026;2023-03-14T07:38:33;12.87;;;5.50;;
21392;SDS011;10857;52.228;21.026;2023-03-14T07:41:19;12.57;;;5.50;;
21392;SDS011;10857;52.228;21.026;2023-03-14T07:44:05;9.87;;;5.50;;
21392;SDS011;10857;52.228;21.026;2023-03-14T07:46:32;11.57;;;5.10;;
21392;SDS011;10857;52.228;21.026;2023-03-14T07:48:59;9.00;;;5.40;;
21392;SDS011;10857;52.228;21.026;2023-03-14T07:51:26;11.47;;;5.50;;
21392;SDS011;10857;52.228;21.026;2023-03-14T07:53:53;9.87;;;5.47;;
21392;SDS011;10857;52.228;21.026;2023-03-14T07:56:20;13.47;;;5.40;;
21392;SDS011;10857;52.228;21.026;2023-03-14T07:58:47;10.90;;;5.20;;
21392;SDS011;10857;52.228;21.026;2023-03-14T08:01:14;10.75;;;5.20;;
21392;SDS011;10857;52.228;21.026;2023-03-14T08:03:41;12.27;;;5.33;;
21392;SDS011;10857;52.228;21.026;2023-03-14T08:06:08;11.57;;;5.43;;
21392;SDS011;10857;52.228;21.026;2023-03-14T08:08:35;13.02;;;5.22;;
21392;SDS011;10857;52.228;21.026;2023-03-14T08:11:03;9.40;;;5.27;;
21392;SDS011;10857;52.228;21.026;2023-03-14T08:13:31;11.32;;;5.10;;
21392;SDS011;10857;52.228;21.026;2023-03-14T08:15:58;9.15;;;4.95;;
21392;SDS011;10857;52.228;21.026;2023-03-14T08:18:25;10.07;;;5.47;;
21392;SDS011;10857;52.228;21.026;2023-03-14T08:20:52;11.63;;;5.43;;
21392;SDS011;10857;52.228;21.026;2023-03-14T08:23:19;9.27;;;5.05;;
21392;SDS011;10857;52.228;21.026;2023-03-14T08:25:48;8.95;;;5.15;;
21392;SDS011;10857;52.228;21.026;2023-03-14T08:28:16;12.40;;;5.13;;
21392;SDS011;10857;52.228;21.026;2023-03-14T08:30:44;12.00;;;5.72;;
21392;SDS011;10857;52.228;21.026;2023-03-14T08:33:13;23.00;;;6.75;;
21392;SDS011;10857;52.228;21.026;2023-03-14T08:35:40;15.65;;;5.45;;
21392;SDS011;10857;52.228;21.026;2023-03-14T08:38:06;12.00;;;5.05;;
21392;SDS011;10857;52.228;21.026;2023-03-14T08:40:36;14.63;;;5.40;;
21392;SDS011;10857;52.228;21.026;2023-03-14T08:43:03;10.15;;;5.53;;
21392;SDS011;10857;52.228;21.026;2023-03-14T08:45:30;8.25;;;5.10;;
21392;SDS011;10857;52.228;21.026;2023-03-14T08:47:57;14.55;;;5.68;;
21392;SDS011;10857;52.228;21.026;2023-03-14T08:50:25;11.68;;;5.35;;
21392;SDS011;10857;52.228;21.026;2023-03-14T08:52:52;11.65;;;5.38;;
21392;SDS011;10857;52.228;21.026;2023-03-14T08:55:19;10.30;;;5.55;;
21392;SDS011;10857;52.228;21.026;2023-03-14T08:57:46;9.98;;;5.15;;
21392;SDS011;10857;52.228;21.026;2023-03-14T09:00:13;9.88;;;5.40;;
21392;SDS011;10857;52.228;21.026;2023-03-14T09:02:41;9.75;;;5.15;;
21392;SDS011;10857;52.228;21.026;2023-03-14T09:05:09;11.10;;;4.88;;
21392;SDS011;10857;52.228;21.026;2023-03-14T09:07:37;9.63;;;5.60;;
21392;SDS011;10857;52.228;21.026;2023-03-14T09:10:05;9.10;;;4.85;;
21392;SDS011;10857;52.228;21.026;2023-03-14T09:12:33;10.13;;;5.47;;
21392;SDS011;10857;52.228;21.026;2023-03-14T09:15:00;10.75;;;5.32;;
21392;SDS011;10857;52.228;21.026;2023-03-14T09:17:28;8.02;;;4.90;;
21392;SDS011;10857;52.228;21.026;2023-03-14T09:19:54;8.40;;;5.30;;
21392;SDS011;10857;52.228;21.026;2023-03-14T09:22:25;7.57;;;4.45;;
21392;SDS011;10857;52.228;21.026;2023-03-14T09:24:52;8.75;;;5.00;;
21392;SDS011;10857;52.228;21.026;2023-03-14T09:27:19;10.95;;;5.20;;
21392;SDS011;10857;52.228;21.026;2023-03-14T09:29:46;9.68;;;5.25;;
21392;SDS011;10857;52.228;21.026;2023-03-14T09:32:13;12.75;;;5.28;;
21392;SDS011;10857;52.228;21.026;2023-03-14T09:34:40;10.57;;;4.95;;
21392;SDS011;10857;52.228;21.026;2023-03-14T09:37:06;9.13;;;4.55;;
21392;SDS011;10857;52.228;21.026;2023-03-14T09:39:33;8.95;;;4.68;;
21392;SDS011;10857;52.228;21.026;2023-03-14T09:42:04;11.05;;;5.95;;
21392;SDS011;10857;52.228;21.026;2023-03-14T09:44:42;9.60;;;4.40;;
21392;SDS011;10857;52.228;21.026;2023-03-14T09:47:18;9.32;;;4.57;;
21392;SDS011;10857;52.228;21.026;2023-03-14T09:49:46;9.38;;;4.20;;
21392;SDS011;10857;52.228;21.026;2023-03-14T09:52:21;12.15;;;4.45;;
21392;SDS011;10857;52.228;21.026;2023-03-14T09:54:59;9.25;;;4.22;;
21392;SDS011;10857;52.228;21.026;2023-03-14T09:57:29;11.57;;;4.07;;
21392;SDS011;10857;52.228;21.026;2023-03-14T10:00:02;6.38;;;3.88;;
21392;SDS011;10857;52.228;21.026;2023-03-14T10:02:41;10.75;;;4.20;;
21392;SDS011;10857;52.228;21.026;2023-03-14T10:05:16;8.65;;;4.15;;
21392;SDS011;10857;52.228;21.026;2023-03-14T10:07:44;8.40;;;4.57;;
21392;SDS011;10857;52.228;21.026;2023-03-14T10:10:19;11.13;;;4.72;;
21392;SDS011;10857;52.228;21.026;2023-03-14T10:12:52;9.20;;;4.03;;
21392;SDS011;10857;52.228;21.026;2023-03-14T10:15:36;13.68;;;4.68;;
21392;SDS011;10857;52.228;21.026;2023-03-14T10:18:05;13.18;;;4.63;;
21392;SDS011;10857;52.228;21.026;2023-03-14T10:20:40;12.52;;;3.95;;
21392;SDS011;10857;52.228;21.026;2023-03-14T10:25:40;7.65;;;4.13;;
21392;SDS011;10857;52.228;21.026;2023-03-14T10:28:22;8.27;;;3.70;;
21392;SDS011;10857;52.228;21.026;2023-03-14T10:30:54;36.85;;;7.22;;
21392;SDS011;10857;52.228;21.026;2023-03-14T10:36:31;11.75;;;4.40;;
21392;SDS011;10857;52.228;21.026;2023-03-14T10:38:43;11.05;;;4.20;;
21392;SDS011;10857;52.228;21.026;2023-03-14T10:41:23;9.38;;;4.00;;
21392;SDS011;10857;52.228;21.026;2023-03-14T10:43:58;8.70;;;4.20;;
21392;SDS011;10857;52.228;21.026;2023-03-14T10:46:29;7.18;;;3.95;;
21392;SDS011;10857;52.228;21.026;2023-03-14T10:49:30;8.30;;;4.10;;
21392;SDS011;10857;52.228;21.026;2023-03-14T10:52:11;9.75;;;4.75;;
21392;SDS011;10857;52.228;21.026;2023-03-14T10:55:10;18.70;;;5.18;;
21392;SDS011;10857;52.228;21.026;2023-03-14T10:57:39;13.32;;;5.82;;
21392;SDS011;10857;52.228;21.026;2023-03-14T11:00:16;14.45;;;5.38;;
21392;SDS011;10857;52.228;21.026;2023-03-14T11:03:06;6.80;;;4.32;;
21392;SDS011;10857;52.228;21.026;2023-03-14T11:10:46;7.00;;;4.30;;
21392;SDS011;10857;52.228;21.026;2023-03-14T11:30:36;6.40;;;4.20;;
21392;SDS011;10857;52.228;21.026;2023-03-14T11:33:19;15.20;;;4.93;;
21392;SDS011;10857;52.228;21.026;2023-03-14T11:36:07;12.90;;;4.95;;
21392;SDS011;10857;52.228;21.026;2023-03-14T11:41:20;10.75;;;4.95;;
21392;SDS011;10857;52.228;21.026;2023-03-14T11:43:59;11.23;;;4.70;;
21392;SDS011;10857;52.228;21.026;2023-03-14T11:46:31;12.48;;;4.80;;
21392;SDS011;10857;52.228;21.026;2023-03-14T11:49:05;9.05;;;4.32;;
21392;SDS011;10857;52.228;21.026;2023-03-14T11:51:38;9.38;;;4.90;;
21392;SDS011;10857;52.228;21.026;2023-03-14T11:57:19;10.07;;;4.80;;
21392;SDS011;10857;52.228;21.026;2023-03-14T11:59:50;9.23;;;4.68;;
21392;SDS011;10857;52.228;21.026;2023-03-14T12:13:12;13.63;;;5.07;;
21392;SDS011;10857;52.228;21.026;2023-03-14T12:15:42;13.10;;;5.47;;
21392;SDS011;10857;52.228;21.026;2023-03-14T12:18:37;17.83;;;6.00;;
21392;SDS011;10857;52.228;21.026;2023-03-14T12:21:08;18.27;;;6.10;;
21392;SDS011;10857;52.228;21.026;2023-03-14T12:23:44;12.20;;;5.93;;
21392;SDS011;10857;52.228;21.026;2023-03-14T12:26:20;11.48;;;5.25;;
21392;SDS011;10857;52.228;21.026;2023-03-14T12:34:02;16.42;;;5.85;;
21392;SDS011;10857;52.228;21.026;2023-03-14T12:50:41;45.47;;;10.00;;
21392;SDS011;10857;52.228;21.026;2023-03-14T13:00:56;13.00;;;6.72;;
21392;SDS011;10857;52.228;21.026;2023-03-14T13:03:36;14.38;;;5.97;;
21392;SDS011;10857;52.228;21.026;2023-03-14T13:06:10;9.77;;;6.80;;
21392;SDS011;10857;52.228;21.026;2023-03-14T13:08:44;21.70;;;7.72;;
21392;SDS011;10857;52.228;21.026;2023-03-14T13:11:16;11.52;;;6.45;;
21392;SDS011;10857;52.228;21.026;2023-03-14T13:13:47;14.40;;;6.90;;
21392;SDS011;10857;52.228;21.026;2023-03-14T13:16:19;9.65;;;6.30;;
21392;SDS011;10857;52.228;21.026;2023-03-14T13:19:01;13.95;;;6.93;;
21392;SDS011;10857;52.228;21.026;2023-03-14T13:21:36;14.40;;;6.57;;
21392;SDS011;10857;52.228;21.026;2023-03-14T13:24:05;12.00;;;6.30;;
21392;SDS011;10857;52.228;21.026;2023-03-14T13:26:44;11.73;;;6.80;;
21392;SDS011;10857;52.228;21.026;2023-03-14T13:31:58;14.23;;;7.03;;
21392;SDS011;10857;52.228;21.026;2023-03-14T13:34:34;14.77;;;7.32;;
21392;SDS011;10857;52.228;21.026;2023-03-14T13:37:01;12.35;;;8.05;;
21392;SDS011;10857;52.228;21.026;2023-03-14T13:39:28;12.05;;;6.95;;
21392;SDS011;10857;52.228;21.026;2023-03-14T13:41:59;13.23;;;6.90;;
21392;SDS011;10857;52.228;21.026;2023-03-14T13:44:31;13.40;;;7.40;;
21392;SDS011;10857;52.228;21.026;2023-03-14T13:47:02;14.27;;;6.95;;
21392;SDS011;10857;52.228;21.026;2023-03-14T13:49:32;12.95;;;6.82;;
21392;SDS011;10857;52.228;21.026;2023-03-14T13:52:02;12.70;;;7.00;;
21392;SDS011;10857;52.228;21.026;2023-03-14T13:54:31;12.82;;;7.32;;
21392;SDS011;10857;52.228;21.026;2023-03-14T13:56:59;11.30;;;7.72;;
21392;SDS011;10857;52.228;21.026;2023-03-14T13:59:30;13.18;;;7.68;;
21392;SDS011;10857;52.228;21.026;2023-03-14T14:01:59;10.90;;;7.10;;
21392;SDS011;10857;52.228;21.026;2023-03-14T14:04:47;16.58;;;8.10;;
21392;SDS011;10857;52.228;21.026;2023-03-14T14:07:15;14.57;;;8.40;;
21392;SDS011;10857;52.228;21.026;2023-03-14T14:09:48;19.23;;;7.85;;
21392;SDS011;10857;52.228;21.026;2023-03-14T14:12:18;13.30;;;7.97;;
21392;SDS011;10857;52.228;21.026;2023-03-14T14:14:49;13.52;;;8.40;;
21392;SDS011;10857;52.228;21.026;2023-03-14T14:17:31;16.90;;;8.68;;
21392;SDS011;10857;52.228;21.026;2023-03-14T14:20:00;13.50;;;8.02;;
21392;SDS011;10857;52.228;21.026;2023-03-14T14:22:29;16.02;;;8.40;;
21392;SDS011;10857;52.228;21.026;2023-03-14T14:24:56;13.35;;;7.90;;
21392;SDS011;10857;52.228;21.026;2023-03-14T14:27:27;17.85;;;8.48;;
21392;SDS011;10857;52.228;21.026;2023-03-14T14:32:43;16.17;;;8.32;;
21392;SDS011;10857;52.228;21.026;2023-03-14T14:35:34;14.83;;;7.83;;
21392;SDS011;10857;52.228;21.026;2023-03-14T14:38:02;12.13;;;7.50;;
21392;SDS011;10857;52.228;21.026;2023-03-14T14:40:43;15.65;;;8.10;;
21392;SDS011;10857;52.228;21.026;2023-03-14T14:43:14;15.10;;;8.20;;
21392;SDS011;10857;52.228;21.026;2023-03-14T14:45:44;13.30;;;6.90;;
21392;SDS011;10857;52.228;21.026;2023-03-14T14:48:13;13.32;;;7.65;;
21392;SDS011;10857;52.228;21.026;2023-03-14T14:53:19;15.57;;;7.68;;
21392;SDS011;10857;52.228;21.026;2023-03-14T14:55:56;12.05;;;7.53;;
21392;SDS011;10857;52.228;21.026;2023-03-14T14:58:29;11.02;;;6.80;;
21392;SDS011;10857;52.228;21.026;2023-03-14T15:01:11;14.48;;;7.63;;
21392;SDS011;10857;52.228;21.026;2023-03-14T15:03:46;11.27;;;6.93;;
21392;SDS011;10857;52.228;21.026;2023-03-14T15:06:16;14.73;;;7.20;;
21392;SDS011;10857;52.228;21.026;2023-03-14T15:08:44;17.53;;;7.33;;
21392;SDS011;10857;52.228;21.026;2023-03-14T15:11:16;15.87;;;7.57;;
21392;SDS011;10857;52.228;21.026;2023-03-14T15:13:44;12.80;;;6.93;;
21392;SDS011;10857;52.228;21.026;2023-03-14T15:16:12;14.57;;;6.90;;
21392;SDS011;10857;52.228;21.026;2023-03-14T15:18:42;12.50;;;7.40;;
21392;SDS011;10857;52.228;21.026;2023-03-14T15:21:09;13.97;;;7.40;;
21392;SDS011;10857;52.228;21.026;2023-03-14T15:23:37;11.73;;;7.20;;
21392;SDS011;10857;52.228;21.026;2023-03-14T15:26:13;13.80;;;7.27;;
21392;SDS011;10857;52.228;21.026;2023-03-14T15:28:43;14.00;;;8.00;;
21392;SDS011;10857;52.228;21.026;2023-03-14T15:31:12;12.53;;;7.80;;
21392;SDS011;10857;52.228;21.026;2023-03-14T15:33:42;14.93;;;8.77;;
21392;SDS011;10857;52.228;21.026;2023-03-14T15:36:21;14.97;;;9.67;;
21392;SDS011;10857;52.228;21.026;2023-03-14T15:38:54;14.10;;;7.73;;
21392;SDS011;10857;52.228;21.026;2023-03-14T15:41:22;13.07;;;7.53;;
21392;SDS011;10857;52.228;21.026;2023-03-14T15:43:50;16.07;;;8.03;;
21392;SDS011;10857;52.228;21.026;2023-03-14T15:46:18;16.07;;;7.57;;
21392;SDS011;10857;52.228;21.026;2023-03-14T15:48:45;15.73;;;9.30;;
21392;SDS011;10857;52.228;21.026;2023-03-14T15:51:12;14.03;;;8.03;;
21392;SDS011;10857;52.228;21.026;2023-03-14T15:53:40;16.53;;;8.00;;
21392;SDS011;10857;52.228;21.026;2023-03-14T15:56:13;14.43;;;8.67;;
21392;SDS011;10857;52.228;21.026;2023-03-14T15:58:43;15.63;;;8.33;;
21392;SDS011;10857;52.228;21.026;2023-03-14T16:01:13;15.33;;;8.20;;
21392;SDS011;10857;52.228;21.026;2023-03-14T16:03:43;15.17;;;8.17;;
21392;SDS011;10857;52.228;21.026;2023-03-14T16:06:11;15.40;;;9.30;;
21392;SDS011;10857;52.228;21.026;2023-03-14T16:08:39;15.20;;;9.00;;
21392;SDS011;10857;52.228;21.026;2023-03-14T16:11:06;15.17;;;8.67;;
21392;SDS011;10857;52.228;21.026;2023-03-14T16:13:35;13.57;;;8.83;;
21392;SDS011;10857;52.228;21.026;2023-03-14T16:16:03;14.43;;;8.63;;